Varamar — CURZ9 — position and weather

sailwx.info

Track history (hours):
 
Tides and Currents Weather Stations Pressure Air Temp Water Temp Dewpoint Dewpoint Depression Visibility Wind Speed Wind Dir Waves Ship Positions

Varamar

Last reported at 2017-Nov-24 10:47 UTC. Time now 2017-Nov-25 02:02 UTC.
Position N 38°26' W 009°07'.

Length 18 m.

Type: Fishing. MMSI: 255512000.

Date/timePositionNaut miles runAvg speedWind from/ knotsBaromVisibWave heightAir tempDewpointWater temp
2017-Nov-24 10:47N 38°26' W 009°07'0 1.3
2017-Nov-24 10:30N 38°26' W 009°06'6 7.7
2017-Nov-24 09:46N 38°24' W 009°13'2 8.1
2017-Nov-24 09:28N 38°26' W 009°15'4 8.4
2017-Nov-24 08:59N 38°28' W 009°19'4 8.3
2017-Nov-24 08:30N 38°31' W 009°23'4 8.2
2017-Nov-24 08:00N 38°33' W 009°28'4 7.3
2017-Nov-24 07:30N 38°34' W 009°32'4 8.0
2017-Nov-24 06:59N 38°36' W 009°37'4 8.0
2017-Nov-24 06:30N 38°38' W 009°41'4 8.2
2017-Nov-24 06:01N 38°40' W 009°45'4 8.0
2017-Nov-24 05:31N 38°42' W 009°50'2 4.9
2017-Nov-24 05:00N 38°40' W 009°52'3 5.9
2017-Nov-24 04:30N 38°38' W 009°53'1 2.2
2017-Nov-24 04:00N 38°37' W 009°52'0 0.5
2017-Nov-24 03:30N 38°37' W 009°52'3 5.6
2017-Nov-24 03:01N 38°34' W 009°50'3 5.4
2017-Nov-24 02:30N 38°32' W 009°49'3 5.7
2017-Nov-24 01:56N 38°31' W 009°45'4 8.3
2017-Nov-24 01:28N 38°30' W 009°40'4 8.3
2017-Nov-24 01:00N 38°29' W 009°35'4 8.3
2017-Nov-24 00:29N 38°28' W 009°30'4 8.2
2017-Nov-24 00:00N 38°27' W 009°25'5 8.0
2017-Nov-23 23:24N 38°25' W 009°19'9 7.6
2017-Nov-23 22:14N 38°25' W 009°08'2 7.9
2017-Nov-23 22:00N 38°26' W 009°06'0 0.6
2017-Nov-23 21:31N 38°26' W 009°07'  
2017-Nov-18 07:57N 38°26' W 009°07'0 0.0
2017-Nov-18 07:30N 38°26' W 009°07'0 0.2
2017-Nov-18 07:00N 38°26' W 009°07'0 0.7
2017-Nov-18 06:30N 38°26' W 009°07'4 8.7
2017-Nov-18 06:00N 38°24' W 009°11'4 8.5
2017-Nov-18 05:30N 38°25' W 009°17'4 8.7
2017-Nov-18 05:00N 38°27' W 009°22'5 9.2
2017-Nov-18 04:30N 38°28' W 009°28'6 8.8
2017-Nov-18 03:50N 38°29' W 009°35'4 8.9
2017-Nov-18 03:22N 38°30' W 009°40'3 8.9
2017-Nov-18 03:00N 38°31' W 009°44'4 8.7
2017-Nov-18 02:30N 38°33' W 009°49'4 6.6
2017-Nov-18 01:57N 38°36' W 009°51'2 4.5
2017-Nov-18 01:30N 38°38' W 009°51'2 3.8
2017-Nov-18 01:00N 38°37' W 009°53'3 6.7
2017-Nov-18 00:30N 38°40' W 009°52'2 3.9
2017-Nov-18 00:00N 38°42' W 009°51'2 3.4
2017-Nov-17 23:30N 38°41' W 009°52'0 0.4
2017-Nov-17 23:00N 38°41' W 009°52'0 0.9
2017-Nov-17 22:29N 38°40' W 009°52'1 0.8
2017-Nov-17 21:49N 38°40' W 009°53'1 0.8
2017-Nov-17 19:58N 38°38' W 009°53'0 0.8
2017-Nov-17 19:27N 38°38' W 009°54'0 0.8
2017-Nov-17 18:57N 38°38' W 009°54'0 0.5
2017-Nov-17 18:24N 38°37' W 009°54'0 0.6
2017-Nov-17 18:00N 38°37' W 009°54'1 2.5
2017-Nov-17 17:30N 38°37' W 009°53'0 0.5
2017-Nov-17 17:00N 38°37' W 009°52'0 0.8
2017-Nov-17 16:30N 38°37' W 009°52'0 1.0
2017-Nov-17 16:00N 38°36' W 009°52'0 0.8
2017-Nov-17 15:30N 38°36' W 009°52'1 1.3
2017-Nov-17 15:00N 38°35' W 009°52'1 1.3
2017-Nov-17 14:30N 38°35' W 009°51'0 1.0
2017-Nov-17 14:00N 38°34' W 009°51'1 1.1
2017-Nov-17 13:30N 38°34' W 009°51'0 0.9
2017-Nov-17 13:00N 38°33' W 009°50'0 0.2
2017-Nov-17 12:28N 38°33' W 009°50'2 3.8
2017-Nov-17 12:00N 38°32' W 009°48'4 8.6
2017-Nov-17 11:29N 38°31' W 009°43'4 8.6
2017-Nov-17 11:00N 38°30' W 009°38'4 8.7
2017-Nov-17 10:30N 38°29' W 009°33'5 9.0
2017-Nov-17 09:59N 38°28' W 009°27'5 9.3
2017-Nov-17 09:30N 38°26' W 009°21'5 9.3
2017-Nov-17 09:00N 38°25' W 009°16'4 8.8
2017-Nov-17 08:30N 38°25' W 009°10'3 6.2
2017-Nov-17 08:00N 38°26' W 009°07'0 0.0
2017-Nov-17 07:30N 38°26' W 009°07'0 0.0
2017-Nov-17 07:00N 38°26' W 009°07'0 0.0
2017-Nov-16 06:15N 38°26' W 009°07'0 0.0
2017-Nov-16 05:59N 38°26' W 009°07'0 0.0
2017-Nov-16 05:29N 38°26' W 009°07'0 0.0
2017-Nov-16 05:00N 38°26' W 009°07'2 4.8
2017-Nov-16 04:30N 38°25' W 009°09'4 8.3
2017-Nov-16 04:00N 38°25' W 009°14'4 8.6
2017-Nov-16 03:29N 38°26' W 009°20'4 8.8
2017-Nov-16 03:00N 38°27' W 009°25'4 8.9
2017-Nov-16 02:30N 38°28' W 009°31'4 8.7
2017-Nov-16 02:00N 38°29' W 009°36'4 8.8
2017-Nov-16 01:30N 38°30' W 009°41'4 8.5
2017-Nov-16 01:00N 38°32' W 009°47'3 6.7
2017-Nov-16 00:30N 38°34' W 009°50'3 6.6
2017-Nov-16 00:00N 38°37' W 009°52'1 1.6
2017-Nov-15 23:30N 38°37' W 009°52'2 3.2
2017-Nov-15 23:00N 38°39' W 009°53'3 6.7
2017-Nov-15 22:30N 38°42' W 009°51'1 1.4
2017-Nov-15 22:00N 38°41' W 009°52'0 0.7
2017-Nov-15 21:30N 38°41' W 009°52'0 0.8
2017-Nov-15 21:00N 38°40' W 009°52'0 1.0
2017-Nov-15 20:30N 38°40' W 009°52'1 1.0
2017-Nov-15 20:00N 38°39' W 009°53'0 0.9
2017-Nov-15 19:30N 38°39' W 009°53'1 1.1
2017-Nov-15 19:00N 38°38' W 009°53'0 1.0
2017-Nov-15 18:30N 38°38' W 009°53'0 1.0
2017-Nov-15 18:00N 38°38' W 009°53'0 1.0
2017-Nov-15 17:30N 38°37' W 009°53'0 0.7
2017-Nov-15 17:00N 38°37' W 009°53'0 0.7
2017-Nov-15 16:30N 38°37' W 009°53'0 0.6
2017-Nov-15 16:00N 38°36' W 009°52'0 0.6
2017-Nov-15 15:30N 38°36' W 009°52'0 0.9
2017-Nov-15 15:00N 38°36' W 009°52'1 1.0
2017-Nov-15 14:29N 38°35' W 009°52'1 1.2
2017-Nov-15 14:00N 38°35' W 009°51'1 1.1
2017-Nov-15 13:30N 38°34' W 009°51'0 0.9
2017-Nov-15 13:00N 38°34' W 009°51'0 0.1
2017-Nov-15 12:30N 38°34' W 009°51'1 2.3
2017-Nov-15 11:59N 38°33' W 009°49'5 9.3
2017-Nov-15 11:27N 38°32' W 009°43'4 8.6
2017-Nov-15 10:57N 38°31' W 009°38'5 8.6
2017-Nov-15 10:25N 38°29' W 009°33'4 8.8
2017-Nov-15 10:00N 38°28' W 009°28'4 9.1
2017-Nov-15 09:30N 38°27' W 009°23'5 9.3
2017-Nov-15 09:00N 38°25' W 009°17'4 9.0
2017-Nov-15 08:30N 38°24' W 009°11'4 8.6
2017-Nov-15 08:00N 38°26' W 009°06'0 0.4
2017-Nov-15 07:30N 38°26' W 009°07'0 0.0
2017-Nov-15 07:00N 38°26' W 009°07'0 0.0
2017-Nov-14 18:38N 38°26' W 009°07'0 0.0
2017-Nov-14 18:30N 38°26' W 009°07'0 0.0
2017-Nov-14 18:00N 38°26' W 009°07'0 0.0
2017-Nov-14 17:30N 38°26' W 009°07'0 0.0
2017-Nov-14 17:00N 38°26' W 009°07'0 0.0
2017-Nov-14 16:30N 38°26' W 009°07'0 0.0
2017-Nov-14 11:15N 38°26' W 009°07'0 0.0
2017-Nov-14 11:00N 38°26' W 009°07'  
Track history (hours):
 
Tides and Currents Weather Stations Pressure Air Temp Water Temp Dewpoint Dewpoint Depression Visibility Wind Speed Wind Dir Waves Ship Positions

Varamar

Last reported at 2017-Nov-24 10:47 UTC. Time now 2017-Nov-25 02:02 UTC.
Position N 38°26' W 009°07'.

Length 18 m.

Type: Fishing. MMSI: 255512000.

Date/timePositionNaut miles runAvg speedWind from/ knotsBaromVisibWave heightAir tempDewpointWater temp
2017-Nov-24 10:47N 38°26' W 009°07'0 1.3
2017-Nov-24 10:30N 38°26' W 009°06'6 7.7
2017-Nov-24 09:46N 38°24' W 009°13'2 8.1
2017-Nov-24 09:28N 38°26' W 009°15'4 8.4
2017-Nov-24 08:59N 38°28' W 009°19'4 8.3
2017-Nov-24 08:30N 38°31' W 009°23'4 8.2
2017-Nov-24 08:00N 38°33' W 009°28'4 7.3
2017-Nov-24 07:30N 38°34' W 009°32'4 8.0
2017-Nov-24 06:59N 38°36' W 009°37'4 8.0
2017-Nov-24 06:30N 38°38' W 009°41'4 8.2
2017-Nov-24 06:01N 38°40' W 009°45'4 8.0
2017-Nov-24 05:31N 38°42' W 009°50'2 4.9
2017-Nov-24 05:00N 38°40' W 009°52'3 5.9
2017-Nov-24 04:30N 38°38' W 009°53'1 2.2
2017-Nov-24 04:00N 38°37' W 009°52'0 0.5
2017-Nov-24 03:30N 38°37' W 009°52'3 5.6
2017-Nov-24 03:01N 38°34' W 009°50'3 5.4
2017-Nov-24 02:30N 38°32' W 009°49'3 5.7
2017-Nov-24 01:56N 38°31' W 009°45'4 8.3
2017-Nov-24 01:28N 38°30' W 009°40'4 8.3
2017-Nov-24 01:00N 38°29' W 009°35'4 8.3
2017-Nov-24 00:29N 38°28' W 009°30'4 8.2
2017-Nov-24 00:00N 38°27' W 009°25'5 8.0
2017-Nov-23 23:24N 38°25' W 009°19'9 7.6
2017-Nov-23 22:14N 38°25' W 009°08'2 7.9
2017-Nov-23 22:00N 38°26' W 009°06'0 0.6
2017-Nov-23 21:31N 38°26' W 009°07'  
2017-Nov-18 07:57N 38°26' W 009°07'0 0.0
2017-Nov-18 07:30N 38°26' W 009°07'0 0.2
2017-Nov-18 07:00N 38°26' W 009°07'0 0.7
2017-Nov-18 06:30N 38°26' W 009°07'4 8.7
2017-Nov-18 06:00N 38°24' W 009°11'4 8.5
2017-Nov-18 05:30N 38°25' W 009°17'4 8.7
2017-Nov-18 05:00N 38°27' W 009°22'5 9.2
2017-Nov-18 04:30N 38°28' W 009°28'6 8.8
2017-Nov-18 03:50N 38°29' W 009°35'4 8.9
2017-Nov-18 03:22N 38°30' W 009°40'3 8.9
2017-Nov-18 03:00N 38°31' W 009°44'4 8.7
2017-Nov-18 02:30N 38°33' W 009°49'4 6.6
2017-Nov-18 01:57N 38°36' W 009°51'2 4.5
2017-Nov-18 01:30N 38°38' W 009°51'2 3.8
2017-Nov-18 01:00N 38°37' W 009°53'3 6.7
2017-Nov-18 00:30N 38°40' W 009°52'2 3.9
2017-Nov-18 00:00N 38°42' W 009°51'2 3.4
2017-Nov-17 23:30N 38°41' W 009°52'0 0.4
2017-Nov-17 23:00N 38°41' W 009°52'0 0.9
2017-Nov-17 22:29N 38°40' W 009°52'1 0.8
2017-Nov-17 21:49N 38°40' W 009°53'1 0.8
2017-Nov-17 19:58N 38°38' W 009°53'0 0.8
2017-Nov-17 19:27N 38°38' W 009°54'0 0.8
2017-Nov-17 18:57N 38°38' W 009°54'0 0.5
2017-Nov-17 18:24N 38°37' W 009°54'0 0.6
2017-Nov-17 18:00N 38°37' W 009°54'1 2.5
2017-Nov-17 17:30N 38°37' W 009°53'0 0.5
2017-Nov-17 17:00N 38°37' W 009°52'0 0.8
2017-Nov-17 16:30N 38°37' W 009°52'0 1.0
2017-Nov-17 16:00N 38°36' W 009°52'0 0.8
2017-Nov-17 15:30N 38°36' W 009°52'1 1.3
2017-Nov-17 15:00N 38°35' W 009°52'1 1.3
2017-Nov-17 14:30N 38°35' W 009°51'0 1.0
2017-Nov-17 14:00N 38°34' W 009°51'1 1.1
2017-Nov-17 13:30N 38°34' W 009°51'0 0.9
2017-Nov-17 13:00N 38°33' W 009°50'0 0.2
2017-Nov-17 12:28N 38°33' W 009°50'2 3.8
2017-Nov-17 12:00N 38°32' W 009°48'4 8.6
2017-Nov-17 11:29N 38°31' W 009°43'4 8.6
2017-Nov-17 11:00N 38°30' W 009°38'4 8.7
2017-Nov-17 10:30N 38°29' W 009°33'5 9.0
2017-Nov-17 09:59N 38°28' W 009°27'5 9.3
2017-Nov-17 09:30N 38°26' W 009°21'5 9.3
2017-Nov-17 09:00N 38°25' W 009°16'4 8.8
2017-Nov-17 08:30N 38°25' W 009°10'3 6.2
2017-Nov-17 08:00N 38°26' W 009°07'0 0.0
2017-Nov-17 07:30N 38°26' W 009°07'0 0.0
2017-Nov-17 07:00N 38°26' W 009°07'0 0.0
2017-Nov-16 06:15N 38°26' W 009°07'0 0.0
2017-Nov-16 05:59N 38°26' W 009°07'0 0.0
2017-Nov-16 05:29N 38°26' W 009°07'0 0.0
2017-Nov-16 05:00N 38°26' W 009°07'2 4.8
2017-Nov-16 04:30N 38°25' W 009°09'4 8.3
2017-Nov-16 04:00N 38°25' W 009°14'4 8.6
2017-Nov-16 03:29N 38°26' W 009°20'4 8.8
2017-Nov-16 03:00N 38°27' W 009°25'4 8.9
2017-Nov-16 02:30N 38°28' W 009°31'4 8.7
2017-Nov-16 02:00N 38°29' W 009°36'4 8.8
2017-Nov-16 01:30N 38°30' W 009°41'4 8.5
2017-Nov-16 01:00N 38°32' W 009°47'3 6.7
2017-Nov-16 00:30N 38°34' W 009°50'3 6.6
2017-Nov-16 00:00N 38°37' W 009°52'1 1.6
2017-Nov-15 23:30N 38°37' W 009°52'2 3.2
2017-Nov-15 23:00N 38°39' W 009°53'3 6.7
2017-Nov-15 22:30N 38°42' W 009°51'1 1.4
2017-Nov-15 22:00N 38°41' W 009°52'0 0.7
2017-Nov-15 21:30N 38°41' W 009°52'0 0.8
2017-Nov-15 21:00N 38°40' W 009°52'0 1.0
2017-Nov-15 20:30N 38°40' W 009°52'1 1.0
2017-Nov-15 20:00N 38°39' W 009°53'0 0.9
2017-Nov-15 19:30N 38°39' W 009°53'1 1.1
2017-Nov-15 19:00N 38°38' W 009°53'0 1.0
2017-Nov-15 18:30N 38°38' W 009°53'0 1.0
2017-Nov-15 18:00N 38°38' W 009°53'0 1.0
2017-Nov-15 17:30N 38°37' W 009°53'0 0.7
2017-Nov-15 17:00N 38°37' W 009°53'0 0.7
2017-Nov-15 16:30N 38°37' W 009°53'0 0.6
2017-Nov-15 16:00N 38°36' W 009°52'0 0.6
2017-Nov-15 15:30N 38°36' W 009°52'0 0.9
2017-Nov-15 15:00N 38°36' W 009°52'1 1.0
2017-Nov-15 14:29N 38°35' W 009°52'1 1.2
2017-Nov-15 14:00N 38°35' W 009°51'1 1.1
2017-Nov-15 13:30N 38°34' W 009°51'0 0.9
2017-Nov-15 13:00N 38°34' W 009°51'0 0.1
2017-Nov-15 12:30N 38°34' W 009°51'1 2.3
2017-Nov-15 11:59N 38°33' W 009°49'5 9.3
2017-Nov-15 11:27N 38°32' W 009°43'4 8.6
2017-Nov-15 10:57N 38°31' W 009°38'5 8.6
2017-Nov-15 10:25N 38°29' W 009°33'4 8.8
2017-Nov-15 10:00N 38°28' W 009°28'4 9.1
2017-Nov-15 09:30N 38°27' W 009°23'5 9.3
2017-Nov-15 09:00N 38°25' W 009°17'4 9.0
2017-Nov-15 08:30N 38°24' W 009°11'4 8.6
2017-Nov-15 08:00N 38°26' W 009°06'0 0.4
2017-Nov-15 07:30N 38°26' W 009°07'0 0.0
2017-Nov-15 07:00N 38°26' W 009°07'0 0.0
2017-Nov-14 18:38N 38°26' W 009°07'0 0.0
2017-Nov-14 18:30N 38°26' W 009°07'0 0.0
2017-Nov-14 18:00N 38°26' W 009°07'0 0.0
2017-Nov-14 17:30N 38°26' W 009°07'0 0.0
2017-Nov-14 17:00N 38°26' W 009°07'0 0.0
2017-Nov-14 16:30N 38°26' W 009°07'0 0.0
2017-Nov-14 11:15N 38°26' W 009°07'0 0.0
2017-Nov-14 11:00N 38°26' W 009°07'  

Dump ship's entire track history